Time;durP1;ratioP1;P1;durP2;ratioP2;P2;SDS_P1;SDS_P2;PMS_P1;PMS_P2;Temp;Humidity;BMP_temperature;BMP_pressure;BME280_temperature;BME280_humidity;BME280_pressure;Samples;Min_cycle;Max_cycle;Signal;HPM_P1;HPM_P2
2022/11/11 00:00:57;;;;;;;24.23;8.75;;;;;;;;;;5048790;28;20488;-67
2022/11/11 00:03:24;;;;;;;13.40;8.00;;;;;;;;;;5057587;28;20100;-66
2022/11/11 00:05:50;;;;;;;16.27;8.07;;;;;;;;;;5061484;28;20546;-67
2022/11/11 00:08:17;;;;;;;16.95;8.40;;;;;;;;;;5046387;28;20057;-68
2022/11/11 00:10:43;;;;;;;16.63;7.95;;;;;;;;;;5051685;28;20048;-66
2022/11/11 00:13:09;;;;;;;13.10;7.95;;;;;;;;;;5048167;28;20053;-67
2022/11/11 00:15:37;;;;;;;16.65;8.82;;;;;;;;;;5049550;28;20064;-66
2022/11/11 00:26:22;;;;;;;17.27;9.18;;;;;;;;;;5044057;28;20538;-66
2022/11/11 00:29:05;;;;;;;17.60;10.05;;;;;;;;;;5046849;28;20161;-67
2022/11/11 00:31:33;;;;;;;21.33;9.93;;;;;;;;;;5057331;28;20384;-66
2022/11/11 00:34:00;;;;;;;16.48;9.75;;;;;;;;;;5059420;28;20049;-67
2022/11/11 00:36:26;;;;;;;16.95;10.82;;;;;;;;;;5047979;28;20076;-67
2022/11/11 00:38:54;;;;;;;21.00;11.38;;;;;;;;;;5046931;28;20487;-67
2022/11/11 00:41:22;;;;;;;20.05;11.20;;;;;;;;;;5062363;28;20052;-66
2022/11/11 00:43:48;;;;;;;21.33;11.07;;;;;;;;;;5045526;28;20592;-66
2022/11/11 00:51:45;;;;;;;23.20;12.77;;;;;;;;;;5047180;28;20163;-66
2022/11/11 00:54:11;;;;;;;25.15;12.07;;;;;;;;;;5061575;28;20052;-66
2022/11/11 00:56:38;;;;;;;25.80;12.77;;;;;;;;;;5061263;28;20148;-67
2022/11/11 00:59:05;;;;;;;23.17;13.73;;;;;;;;;;5044540;28;20140;-67
2022/11/11 01:01:32;;;;;;;23.92;12.15;;;;;;;;;;5059332;28;20145;-66
2022/11/11 01:03:59;;;;;;;17.02;12.68;;;;;;;;;;5057681;28;20129;-67
2022/11/11 01:06:25;;;;;;;19.42;12.90;;;;;;;;;;5057838;28;20521;-67
2022/11/11 01:08:52;;;;;;;20.35;12.90;;;;;;;;;;5061271;28;20049;-68
2022/11/11 01:11:19;;;;;;;19.60;13.25;;;;;;;;;;5057928;28;20080;-67
2022/11/11 01:13:46;;;;;;;18.42;13.20;;;;;;;;;;5047579;28;20053;-67
2022/11/11 01:16:13;;;;;;;23.42;13.68;;;;;;;;;;5056252;28;20059;-68
2022/11/11 01:18:40;;;;;;;24.77;14.30;;;;;;;;;;5057504;28;20641;-68
2022/11/11 01:21:11;;;;;;;27.83;14.82;;;;;;;;;;5057451;28;20579;-67
2022/11/11 01:23:38;;;;;;;21.70;14.77;;;;;;;;;;5061052;28;20135;-67
2022/11/11 01:26:10;;;;;;;20.95;13.90;;;;;;;;;;5064933;28;20488;-66
2022/11/11 01:28:36;;;;;;;23.90;14.38;;;;;;;;;;5065025;28;20057;-67
2022/11/11 01:31:04;;;;;;;19.45;13.35;;;;;;;;;;5068781;28;20080;-67
2022/11/11 01:33:31;;;;;;;22.10;15.43;;;;;;;;;;5060049;28;20517;-66
2022/11/11 01:36:07;;;;;;;26.35;14.60;;;;;;;;;;5051382;28;20052;-67
2022/11/11 01:38:33;;;;;;;27.17;16.35;;;;;;;;;;5060221;28;20057;-67
2022/11/11 01:41:00;;;;;;;21.50;14.68;;;;;;;;;;5058635;28;20049;-67
2022/11/11 01:43:26;;;;;;;26.48;14.73;;;;;;;;;;5057619;28;20061;-67
2022/11/11 01:45:58;;;;;;;23.25;15.18;;;;;;;;;;5055077;28;20052;-67
2022/11/11 01:51:21;;;;;;;27.63;16.38;;;;;;;;;;5046377;28;20041;-67
2022/11/11 01:53:53;;;;;;;21.90;16.60;;;;;;;;;;5051460;28;20143;-67
2022/11/11 01:56:19;;;;;;;25.30;16.65;;;;;;;;;;5051091;28;20056;-67
2022/11/11 01:58:46;;;;;;;26.67;16.27;;;;;;;;;;5057788;28;20061;-67
2022/11/11 02:01:12;;;;;;;24.45;15.85;;;;;;;;;;5060181;28;20053;-67
2022/11/11 02:03:40;;;;;;;29.23;16.90;;;;;;;;;;5064189;28;20045;-67
2022/11/11 02:06:07;;;;;;;28.77;17.88;;;;;;;;;;5059586;28;20132;-66
2022/11/11 02:08:35;;;;;;;27.92;17.48;;;;;;;;;;5043753;28;20053;-67
2022/11/11 02:14:34;;;;;;;29.98;17.70;;;;;;;;;;5060602;28;20041;-67
2022/11/11 02:16:53;;;;;;;24.02;16.50;;;;;;;;;;5041193;28;20058;-67
2022/11/11 02:19:23;;;;;;;26.65;16.58;;;;;;;;;;5047056;28;20049;-67
2022/11/11 02:21:56;;;;;;;28.73;17.67;;;;;;;;;;5061305;28;20049;-67
2022/11/11 02:24:23;;;;;;;27.50;18.08;;;;;;;;;;5049489;28;20080;-67
2022/11/11 02:26:51;;;;;;;31.05;18.02;;;;;;;;;;5052068;28;20053;-67
2022/11/11 02:29:23;;;;;;;30.90;18.23;;;;;;;;;;5055970;28;20057;-67
2022/11/11 02:31:49;;;;;;;29.95;17.20;;;;;;;;;;5064939;28;20048;-67
2022/11/11 02:34:16;;;;;;;31.52;17.45;;;;;;;;;;5062282;28;20136;-67
2022/11/11 02:36:43;;;;;;;30.80;17.40;;;;;;;;;;5065417;28;20064;-68
2022/11/11 02:39:09;;;;;;;31.75;18.65;;;;;;;;;;5063722;28;20049;-67
2022/11/11 02:44:21;;;;;;;29.77;19.00;;;;;;;;;;5045083;28;20054;-67
2022/11/11 02:46:47;;;;;;;27.90;17.30;;;;;;;;;;5054838;28;20092;-68
2022/11/11 02:49:13;;;;;;;29.75;17.38;;;;;;;;;;5059230;28;20091;-67
2022/11/11 02:51:40;;;;;;;26.45;17.38;;;;;;;;;;5048243;28;20045;-67
2022/11/11 02:54:07;;;;;;;27.67;17.70;;;;;;;;;;5053828;28;20756;-67
2022/11/11 02:59:20;;;;;;;27.88;17.63;;;;;;;;;;5063761;28;20057;-68
2022/11/11 03:01:47;;;;;;;28.42;17.52;;;;;;;;;;5061942;28;20053;-68
2022/11/11 03:04:14;;;;;;;26.50;17.02;;;;;;;;;;5060964;28;20128;-69
2022/11/11 03:06:40;;;;;;;27.73;17.63;;;;;;;;;;5044990;28;20053;-68
2022/11/11 03:09:07;;;;;;;30.38;17.25;;;;;;;;;;5055382;28;20045;-68
2022/11/11 03:11:37;;;;;;;32.33;17.73;;;;;;;;;;5059764;28;20758;-68
2022/11/11 03:14:04;;;;;;;32.10;17.55;;;;;;;;;;5060396;28;20144;-68
2022/11/11 03:19:15;;;;;;;28.17;17.42;;;;;;;;;;5063547;28;20057;-68
2022/11/11 03:21:41;;;;;;;30.08;17.80;;;;;;;;;;5064079;28;20507;-68
2022/11/11 03:25:36;;;;;;;34.67;18.58;;;;;;;;;;5062953;28;20072;-67
2022/11/11 03:27:15;;;;;;;29.90;18.15;;;;;;;;;;5061174;28;20060;-68
2022/11/11 03:29:41;;;;;;;34.67;18.83;;;;;;;;;;5056674;28;20537;-67
2022/11/11 03:32:08;;;;;;;29.45;17.58;;;;;;;;;;5053585;28;20060;-68
2022/11/11 03:34:34;;;;;;;33.65;18.92;;;;;;;;;;5056121;28;20112;-68
2022/11/11 03:39:46;;;;;;;31.30;18.85;;;;;;;;;;5061051;28;20045;-67
2022/11/11 03:42:12;;;;;;;29.17;17.45;;;;;;;;;;5064256;28;20064;-68
2022/11/11 03:44:38;;;;;;;32.50;18.63;;;;;;;;;;5062017;28;20470;-68
2022/11/11 03:47:05;;;;;;;28.55;18.58;;;;;;;;;;5052064;28;20060;-68
2022/11/11 03:49:31;;;;;;;25.52;16.92;;;;;;;;;;5070709;28;20052;-68
2022/11/11 03:51:57;;;;;;;29.58;18.05;;;;;;;;;;5061827;28;20075;-67
2022/11/11 03:54:24;;;;;;;29.75;18.45;;;;;;;;;;5053972;28;20515;-66
2022/11/11 03:56:50;;;;;;;35.67;18.67;;;;;;;;;;5059841;28;20114;-67
2022/11/11 03:59:16;;;;;;;33.63;17.40;;;;;;;;;;5062529;28;20052;-67
2022/11/11 04:21:42;;;;;;;29.80;16.25;;;;;;;;;;5033026;28;20509;-67
2022/11/11 04:23:53;;;;;;;29.15;17.08;;;;;;;;;;5067968;28;20140;-67
2022/11/11 04:26:20;;;;;;;31.38;17.08;;;;;;;;;;5047985;28;20435;-66
2022/11/11 04:31:31;;;;;;;30.52;16.48;;;;;;;;;;5058022;28;20056;-67
2022/11/11 04:33:57;;;;;;;28.85;15.27;;;;;;;;;;5059941;28;20053;-68
2022/11/11 04:36:23;;;;;;;27.02;15.18;;;;;;;;;;5058333;28;20049;-67
2022/11/11 04:41:34;;;;;;;27.58;15.68;;;;;;;;;;5061397;28;20049;-67
2022/11/11 04:47:06;;;;;;;24.23;14.98;;;;;;;;;;5062345;28;20045;-67
2022/11/11 04:49:33;;;;;;;22.48;14.88;;;;;;;;;;5060775;28;20057;-68
2022/11/11 04:57:33;;;;;;;26.02;15.43;;;;;;;;;;4997690;28;20509;-67
2022/11/11 04:59:59;;;;;;;26.40;14.35;;;;;;;;;;4998845;28;20085;-67
2022/11/11 05:05:11;;;;;;;20.67;14.63;;;;;;;;;;4998845;28;20065;-68
2022/11/11 05:10:23;;;;;;;31.80;14.05;;;;;;;;;;4999017;28;20057;-68
2022/11/11 05:12:49;;;;;;;25.98;15.18;;;;;;;;;;4995877;28;20058;-68
2022/11/11 05:26:19;;;;;;;19.30;12.48;;;;;;;;;;4997357;28;20058;-67
2022/11/11 05:28:46;;;;;;;22.40;13.68;;;;;;;;;;4994305;28;20114;-68
2022/11/11 05:31:12;;;;;;;21.80;14.23;;;;;;;;;;4987339;28;20053;-68
2022/11/11 05:33:38;;;;;;;28.33;14.93;;;;;;;;;;4994446;28;20054;-68
2022/11/11 05:36:05;;;;;;;24.80;14.02;;;;;;;;;;5042269;28;20674;-66
2022/11/11 05:38:31;;;;;;;25.38;14.40;;;;;;;;;;5051921;28;20049;-67
2022/11/11 05:40:57;;;;;;;23.38;14.23;;;;;;;;;;5048917;28;20053;-68
2022/11/11 05:43:24;;;;;;;19.92;12.77;;;;;;;;;;5053811;28;20531;-67
2022/11/11 05:45:51;;;;;;;23.55;12.27;;;;;;;;;;5048489;28;20052;-67
2022/11/11 05:48:17;;;;;;;22.75;13.27;;;;;;;;;;5061732;28;20083;-67
2022/11/11 05:50:43;;;;;;;25.10;13.43;;;;;;;;;;5055778;28;20523;-67
2022/11/11 05:53:09;;;;;;;26.00;13.07;;;;;;;;;;5052155;28;20056;-67
2022/11/11 05:55:36;;;;;;;18.90;12.65;;;;;;;;;;5044560;28;20053;-67
2022/11/11 05:58:02;;;;;;;21.13;12.02;;;;;;;;;;5063215;28;20045;-66
2022/11/11 06:00:28;;;;;;;18.83;12.77;;;;;;;;;;5056454;28;20060;-68
2022/11/11 06:03:00;;;;;;;18.92;12.57;;;;;;;;;;5063340;28;20060;-68
2022/11/11 06:05:27;;;;;;;22.85;13.00;;;;;;;;;;5065709;28;20048;-68
2022/11/11 06:07:53;;;;;;;21.80;12.70;;;;;;;;;;5063183;28;20057;-68
2022/11/11 06:10:31;;;;;;;20.27;12.52;;;;;;;;;;5064738;28;20157;-67
2022/11/11 06:13:01;;;;;;;23.33;11.75;;;;;;;;;;5058652;28;20103;-67
2022/11/11 06:15:27;;;;;;;25.17;12.98;;;;;;;;;;5045038;28;20080;-68
2022/11/11 06:17:53;;;;;;;19.98;12.60;;;;;;;;;;5046973;28;20434;-68
2022/11/11 06:20:20;;;;;;;23.90;13.43;;;;;;;;;;5052002;28;20060;-68
2022/11/11 06:22:55;;;;;;;16.80;11.93;;;;;;;;;;5044982;28;20054;-67
2022/11/11 06:28:14;;;;;;;20.55;12.60;;;;;;;;;;5052281;28;20052;-67
2022/11/11 06:30:40;;;;;;;19.02;12.40;;;;;;;;;;5063506;28;20525;-67
2022/11/11 06:33:15;;;;;;;;;;;;;;;;;;5064523;28;20170;-67
2022/11/11 06:35:42;;;;;;;21.67;12.77;;;;;;;;;;5096363;28;46866;-69
2022/11/11 06:38:08;;;;;;;23.55;14.30;;;;;;;;;;5065178;28;20049;-69
2022/11/11 06:40:35;;;;;;;20.85;12.68;;;;;;;;;;5063951;28;20503;-68
2022/11/11 06:43:01;;;;;;;26.60;14.80;;;;;;;;;;5063713;28;20061;-68
2022/11/11 06:45:28;;;;;;;17.65;12.18;;;;;;;;;;5069594;28;20067;-68
2022/11/11 06:47:55;;;;;;;23.23;13.82;;;;;;;;;;5062592;28;20104;-69
2022/11/11 06:50:21;;;;;;;20.52;13.45;;;;;;;;;;5046748;28;20057;-69
2022/11/11 06:52:48;;;;;;;21.02;12.85;;;;;;;;;;5044772;28;21151;-69
2022/11/11 06:55:14;;;;;;;22.27;13.25;;;;;;;;;;5056748;28;20524;-70
2022/11/11 06:57:40;;;;;;;21.50;13.52;;;;;;;;;;5063260;28;20058;-70
2022/11/11 07:00:07;;;;;;;26.08;13.38;;;;;;;;;;5059985;28;20049;-69
2022/11/11 07:02:33;;;;;;;22.33;13.27;;;;;;;;;;5048522;28;20049;-69
2022/11/11 07:05:00;;;;;;;21.90;14.13;;;;;;;;;;5064414;28;20052;-69
2022/11/11 07:07:27;;;;;;;27.17;15.00;;;;;;;;;;5066083;28;20052;-69
2022/11/11 07:09:56;;;;;;;24.48;13.65;;;;;;;;;;5084019;28;20061;-68
2022/11/11 07:12:23;;;;;;;23.05;14.15;;;;;;;;;;5075543;28;20053;-69
2022/11/11 07:14:49;;;;;;;21.10;14.20;;;;;;;;;;5075967;28;20056;-69
2022/11/11 07:17:15;;;;;;;25.45;14.73;;;;;;;;;;5071619;28;20064;-69
2022/11/11 07:19:42;;;;;;;26.17;14.85;;;;;;;;;;5071703;28;20052;-68
2022/11/11 07:22:08;;;;;;;24.75;15.35;;;;;;;;;;5084426;28;20057;-69
2022/11/11 07:24:34;;;;;;;22.77;14.88;;;;;;;;;;5047843;28;20045;-68
2022/11/11 07:27:01;;;;;;;26.20;14.98;;;;;;;;;;5046208;28;20049;-69
2022/11/11 07:29:28;;;;;;;24.67;14.75;;;;;;;;;;5062226;28;20042;-69
2022/11/11 07:31:54;;;;;;;25.60;14.32;;;;;;;;;;5081971;28;20092;-69
2022/11/11 07:34:20;;;;;;;23.38;13.90;;;;;;;;;;5083837;28;20052;-67
2022/11/11 07:36:47;;;;;;;24.33;14.77;;;;;;;;;;5084207;28;20053;-68
2022/11/11 07:39:13;;;;;;;22.50;14.93;;;;;;;;;;5066235;28;20053;-68
2022/11/11 07:41:40;;;;;;;26.65;14.80;;;;;;;;;;5075915;28;20056;-69
2022/11/11 07:44:06;;;;;;;27.42;15.88;;;;;;;;;;5081496;28;20601;-68
2022/11/11 07:46:33;;;;;;;30.52;14.48;;;;;;;;;;5082947;28;20056;-69
2022/11/11 07:48:59;;;;;;;29.00;15.25;;;;;;;;;;5064448;28;20511;-68
2022/11/11 07:51:25;;;;;;;23.55;15.02;;;;;;;;;;5056167;28;20136;-68
2022/11/11 07:53:52;;;;;;;27.25;14.75;;;;;;;;;;5064079;28;20067;-70
2022/11/11 07:56:18;;;;;;;23.30;14.95;;;;;;;;;;5068705;28;20060;-68
2022/11/11 07:58:44;;;;;;;26.08;14.70;;;;;;;;;;5055120;28;20060;-69
2022/11/11 08:01:11;;;;;;;26.73;14.50;;;;;;;;;;5080823;28;20068;-69
2022/11/11 08:03:48;;;;;;;22.40;12.73;;;;;;;;;;5082484;28;20063;-67
2022/11/11 08:06:18;;;;;;;25.25;13.93;;;;;;;;;;5068478;28;20057;-70
2022/11/11 08:08:45;;;;;;;25.98;14.18;;;;;;;;;;5061249;28;20061;-69
2022/11/11 08:11:12;;;;;;;21.10;13.65;;;;;;;;;;5052824;28;20903;-70
2022/11/11 08:13:42;;;;;;;23.13;15.07;;;;;;;;;;5045464;28;20060;-71
2022/11/11 08:16:09;;;;;;;21.95;14.15;;;;;;;;;;5063566;28;20047;-69
2022/11/11 08:18:36;;;;;;;18.98;12.85;;;;;;;;;;5063399;28;20064;-69
2022/11/11 08:21:03;;;;;;;25.00;14.15;;;;;;;;;;5062833;28;20526;-69
2022/11/11 08:23:32;;;;;;;25.13;15.05;;;;;;;;;;5062994;28;20774;-69
2022/11/11 08:26:20;;;;;;;29.33;14.48;;;;;;;;;;5069531;28;20604;-69
2022/11/11 08:28:54;;;;;;;29.38;14.90;;;;;;;;;;5063053;28;20049;-68
2022/11/11 08:31:20;;;;;;;23.92;13.68;;;;;;;;;;5069267;28;20546;-68
2022/11/11 08:33:47;;;;;;;21.92;12.98;;;;;;;;;;5082121;28;20556;-67
2022/11/11 08:36:14;;;;;;;23.20;14.57;;;;;;;;;;5083315;28;20668;-69
2022/11/11 08:38:46;;;;;;;21.52;13.20;;;;;;;;;;5080816;28;20060;-68
2022/11/11 08:41:12;;;;;;;23.85;12.95;;;;;;;;;;5057304;28;20049;-68
2022/11/11 08:43:39;;;;;;;21.58;13.02;;;;;;;;;;5043351;28;20496;-70
2022/11/11 08:46:05;;;;;;;21.15;13.85;;;;;;;;;;5070588;28;20049;-68
2022/11/11 08:48:31;;;;;;;24.77;14.60;;;;;;;;;;5072956;28;20049;-68
2022/11/11 08:50:58;;;;;;;24.05;13.80;;;;;;;;;;5063007;28;20049;-69
2022/11/11 08:53:25;;;;;;;19.42;12.18;;;;;;;;;;5063138;28;20061;-69
2022/11/11 08:55:52;;;;;;;20.65;13.38;;;;;;;;;;5071231;28;20079;-68
2022/11/11 08:58:19;;;;;;;23.20;13.93;;;;;;;;;;5076274;28;20076;-69
2022/11/11 09:00:46;;;;;;;20.13;12.85;;;;;;;;;;5073122;28;20056;-70
2022/11/11 09:03:12;;;;;;;21.58;12.80;;;;;;;;;;5062508;28;20114;-69
2022/11/11 09:05:39;;;;;;;21.55;12.57;;;;;;;;;;5062066;28;20060;-69
2022/11/11 09:08:06;;;;;;;23.42;13.50;;;;;;;;;;5065975;28;20078;-68
2022/11/11 09:10:33;;;;;;;23.25;13.63;;;;;;;;;;5062404;28;20526;-68
2022/11/11 09:13:00;;;;;;;22.08;13.45;;;;;;;;;;5062849;28;20521;-68
2022/11/11 09:15:27;;;;;;;25.58;13.45;;;;;;;;;;5077685;28;20052;-67
2022/11/11 09:17:53;;;;;;;22.08;14.13;;;;;;;;;;5050584;28;20057;-68
2022/11/11 09:20:20;;;;;;;22.55;12.68;;;;;;;;;;5057836;28;20049;-68
2022/11/11 09:22:51;;;;;;;24.80;13.88;;;;;;;;;;5069619;28;20510;-68
2022/11/11 09:25:18;;;;;;;24.63;12.98;;;;;;;;;;5082127;28;20503;-68
2022/11/11 09:27:52;;;;;;;23.20;14.27;;;;;;;;;;5081843;28;20435;-70
2022/11/11 09:30:18;;;;;;;19.52;13.18;;;;;;;;;;5068376;28;20088;-68
2022/11/11 09:32:45;;;;;;;19.23;12.18;;;;;;;;;;5052596;28;20068;-69
2022/11/11 09:35:11;;;;;;;25.08;13.55;;;;;;;;;;5068627;28;20502;-70
2022/11/11 09:37:38;;;;;;;16.08;11.32;;;;;;;;;;5077650;28;20053;-69
2022/11/11 09:40:05;;;;;;;21.88;12.98;;;;;;;;;;5077386;28;20506;-70
2022/11/11 09:42:42;;;;;;;19.85;13.75;;;;;;;;;;5075772;28;20762;-70
2022/11/11 09:45:44;;;;;;;20.58;12.35;;;;;;;;;;5065861;28;20496;-70
2022/11/11 09:48:40;;;;;;;24.02;13.73;;;;;;;;;;5022921;28;20057;-69
2022/11/11 09:51:13;;;;;;;19.05;12.93;;;;;;;;;;5018522;28;20146;-69
2022/11/11 09:53:43;;;;;;;21.05;13.52;;;;;;;;;;5022992;28;20050;-70
2022/11/11 09:56:19;;;;;;;23.65;13.30;;;;;;;;;;5016676;28;20058;-70
2022/11/11 09:59:15;;;;;;;18.10;13.27;;;;;;;;;;5008094;28;20249;-71
2022/11/11 10:01:45;;;;;;;24.03;12.40;;;;;;;;;;5021780;28;20057;-73
2022/11/11 10:04:20;;;;;;;19.15;12.43;;;;;;;;;;5022766;28;20137;-71
2022/11/11 10:06:47;;;;;;;23.23;12.68;;;;;;;;;;5032174;28;20632;-69
2022/11/11 10:09:22;;;;;;;21.38;13.27;;;;;;;;;;5037144;28;20077;-69
2022/11/11 10:12:04;;;;;;;26.83;13.82;;;;;;;;;;5028933;28;20057;-70
2022/11/11 10:14:32;;;;;;;24.08;13.38;;;;;;;;;;5036783;28;20358;-70
2022/11/11 10:16:58;;;;;;;21.60;13.90;;;;;;;;;;5041567;28;20244;-70
2022/11/11 10:19:43;;;;;;;20.88;13.30;;;;;;;;;;5037343;28;20046;-69
2022/11/11 10:22:26;;;;;;;24.25;14.23;;;;;;;;;;5045842;28;20876;-71
2022/11/11 10:25:05;;;;;;;20.95;12.70;;;;;;;;;;5079656;28;20510;-71
2022/11/11 10:27:31;;;;;;;23.85;13.40;;;;;;;;;;5067336;28;20668;-72
2022/11/11 10:29:59;;;;;;;25.02;13.40;;;;;;;;;;5060220;28;20049;-71
2022/11/11 10:32:32;;;;;;;20.98;13.20;;;;;;;;;;5055619;28;20052;-71
2022/11/11 10:35:11;;;;;;;24.17;14.15;;;;;;;;;;5085434;28;20052;-71
2022/11/11 10:37:41;;;;;;;19.55;12.50;;;;;;;;;;5083161;28;20056;-71
2022/11/11 10:40:08;;;;;;;19.42;12.95;;;;;;;;;;5077537;28;20049;-69
2022/11/11 10:42:34;;;;;;;17.40;12.57;;;;;;;;;;5073913;28;20059;-71
2022/11/11 10:45:12;;;;;;;21.90;12.50;;;;;;;;;;5082282;28;20056;-72
2022/11/11 10:47:44;;;;;;;21.42;12.70;;;;;;;;;;5073163;28;20440;-69
2022/11/11 10:50:10;;;;;;;22.05;14.25;;;;;;;;;;5072899;28;20049;-70
2022/11/11 10:52:40;;;;;;;20.33;12.35;;;;;;;;;;5044488;28;20065;-71
2022/11/11 10:55:14;;;;;;;19.05;12.73;;;;;;;;;;5045075;28;20553;-70
2022/11/11 10:57:47;;;;;;;19.33;12.82;;;;;;;;;;5056633;28;20068;-70
2022/11/11 11:00:14;;;;;;;20.58;12.55;;;;;;;;;;5054607;28;20052;-69
2022/11/11 11:02:45;;;;;;;19.35;12.07;;;;;;;;;;5043765;28;20058;-71
2022/11/11 11:05:26;;;;;;;19.60;14.18;;;;;;;;;;5065466;28;20441;-70
2022/11/11 11:07:55;;;;;;;20.13;14.40;;;;;;;;;;5080595;28;20455;-70
2022/11/11 11:10:25;;;;;;;17.75;12.50;;;;;;;;;;5060909;28;20045;-71
2022/11/11 11:12:59;;;;;;;19.50;13.48;;;;;;;;;;5070805;28;20434;-69
2022/11/11 11:15:27;;;;;;;17.70;12.68;;;;;;;;;;5060807;28;20063;-70
2022/11/11 11:17:57;;;;;;;16.05;11.85;;;;;;;;;;5070818;28;20057;-69
2022/11/11 11:20:24;;;;;;;19.98;13.15;;;;;;;;;;5072016;28;20048;-70
2022/11/11 11:22:52;;;;;;;18.90;12.88;;;;;;;;;;5064698;28;20150;-69
2022/11/11 11:25:19;;;;;;;18.77;11.88;;;;;;;;;;5065264;28;20486;-69
2022/11/11 11:27:46;;;;;;;16.95;11.13;;;;;;;;;;5081028;28;20044;-70
2022/11/11 11:30:17;;;;;;;15.48;10.25;;;;;;;;;;5073341;28;20553;-69
2022/11/11 11:32:54;;;;;;;15.02;10.65;;;;;;;;;;5058966;28;20056;-70
2022/11/11 11:35:35;;;;;;;17.67;12.00;;;;;;;;;;5063561;28;20167;-69
2022/11/11 11:38:02;;;;;;;15.93;10.82;;;;;;;;;;5073600;28;20596;-69
2022/11/11 11:40:43;;;;;;;18.63;10.40;;;;;;;;;;5069261;28;20445;-69
2022/11/11 11:43:25;;;;;;;17.92;11.13;;;;;;;;;;5064336;28;20052;-69
2022/11/11 11:45:58;;;;;;;16.83;10.68;;;;;;;;;;5063124;28;20053;-70
2022/11/11 11:48:34;;;;;;;21.27;11.13;;;;;;;;;;5062952;28;20136;-68
2022/11/11 11:51:15;;;;;;;17.80;11.75;;;;;;;;;;5052153;28;20057;-69
2022/11/11 11:53:44;;;;;;;23.13;11.88;;;;;;;;;;5068942;28;20063;-71
2022/11/11 11:56:28;;;;;;;17.70;11.32;;;;;;;;;;5071357;28;20095;-72
2022/11/11 11:58:54;;;;;;;13.30;9.85;;;;;;;;;;5065017;28;20057;-70
2022/11/11 12:01:31;;;;;;;13.98;9.52;;;;;;;;;;5082492;28;20052;-68
2022/11/11 12:04:00;;;;;;;17.88;9.68;;;;;;;;;;5072073;28;20053;-69
2022/11/11 12:06:50;;;;;;;14.18;10.75;;;;;;;;;;5055402;28;20060;-71
2022/11/11 12:09:16;;;;;;;21.35;11.48;;;;;;;;;;5072012;28;20495;-69
2022/11/11 12:12:03;;;;;;;19.65;12.63;;;;;;;;;;5078874;28;20057;-72
2022/11/11 12:14:29;;;;;;;14.55;10.45;;;;;;;;;;5076191;28;20057;-71
2022/11/11 12:17:09;;;;;;;18.30;10.75;;;;;;;;;;5081909;28;20049;-71
2022/11/11 12:19:47;;;;;;;14.52;10.27;;;;;;;;;;5071029;28;20059;-72
2022/11/11 12:22:32;;;;;;;16.40;12.15;;;;;;;;;;5042653;28;20080;-72
2022/11/11 12:25:09;;;;;;;15.73;10.40;;;;;;;;;;5067616;28;20059;-69
2022/11/11 12:27:36;;;;;;;21.58;11.40;;;;;;;;;;5062946;28;20049;-71
2022/11/11 12:30:27;;;;;;;19.25;12.15;;;;;;;;;;5065026;28;20053;-70
2022/11/11 12:33:05;;;;;;;15.48;9.73;;;;;;;;;;5057562;28;20068;-70
2022/11/11 12:35:50;;;;;;;12.98;9.93;;;;;;;;;;5058073;28;20508;-71
2022/11/11 12:38:19;;;;;;;16.10;10.27;;;;;;;;;;5070047;28;20063;-71
2022/11/11 12:41:00;;;;;;;15.98;9.75;;;;;;;;;;5061468;28;20057;-70
2022/11/11 12:43:42;;;;;;;12.18;8.80;;;;;;;;;;5078527;28;20514;-70
2022/11/11 12:46:08;;;;;;;14.27;9.80;;;;;;;;;;5058376;28;20058;-70
2022/11/11 12:48:45;;;;;;;11.90;9.30;;;;;;;;;;5060428;28;20045;-71
2022/11/11 12:51:30;;;;;;;14.07;9.02;;;;;;;;;;5060749;28;20630;-70
2022/11/11 12:54:18;;;;;;;12.38;9.10;;;;;;;;;;5056634;28;20552;-70
2022/11/11 12:56:44;;;;;;;11.95;8.20;;;;;;;;;;5079668;28;20043;-71
2022/11/11 12:59:17;;;;;;;13.18;8.43;;;;;;;;;;5057170;28;20565;-72
2022/11/11 13:01:49;;;;;;;12.98;9.10;;;;;;;;;;5062197;28;20053;-71
2022/11/11 13:04:32;;;;;;;12.38;8.70;;;;;;;;;;5066255;28;20053;-71
2022/11/11 13:07:21;;;;;;;15.25;8.38;;;;;;;;;;5073233;28;20056;-68
2022/11/11 13:09:50;;;;;;;15.32;8.50;;;;;;;;;;5065459;28;20057;-70
2022/11/11 13:12:28;;;;;;;16.65;9.63;;;;;;;;;;5068808;28;20045;-71
2022/11/11 13:14:58;;;;;;;16.45;8.80;;;;;;;;;;5071111;28;20103;-71
2022/11/11 13:17:25;;;;;;;10.65;7.32;;;;;;;;;;5075003;28;20577;-70
2022/11/11 13:20:17;;;;;;;15.77;8.80;;;;;;;;;;5060061;28;20049;-72
2022/11/11 13:22:47;;;;;;;14.23;7.88;;;;;;;;;;5044315;28;20617;-71
2022/11/11 13:25:15;;;;;;;11.18;7.65;;;;;;;;;;5055998;28;20099;-70
2022/11/11 13:27:42;;;;;;;14.80;9.05;;;;;;;;;;5062576;28;20552;-71
2022/11/11 13:30:27;;;;;;;14.13;7.80;;;;;;;;;;5051388;28;20545;-70
2022/11/11 13:32:59;;;;;;;13.20;7.63;;;;;;;;;;5061593;28;20555;-71
2022/11/11 13:35:31;;;;;;;14.60;8.82;;;;;;;;;;5062525;28;20140;-71
2022/11/11 13:37:57;;;;;;;13.15;8.30;;;;;;;;;;5067430;28;20048;-71
2022/11/11 13:40:39;;;;;;;16.42;8.15;;;;;;;;;;5066343;28;20164;-70
2022/11/11 13:43:15;;;;;;;14.05;7.93;;;;;;;;;;5051573;28;20057;-71
2022/11/11 13:45:42;;;;;;;13.85;8.18;;;;;;;;;;5063535;28;20056;-70
2022/11/11 13:48:20;;;;;;;13.40;8.13;;;;;;;;;;5074297;28;20055;-70
2022/11/11 13:50:46;;;;;;;15.48;8.93;;;;;;;;;;5070258;28;20495;-70
2022/11/11 13:53:28;;;;;;;20.55;9.40;;;;;;;;;;5061055;28;20045;-70
2022/11/11 13:55:59;;;;;;;12.30;8.85;;;;;;;;;;5059281;28;20053;-70
2022/11/11 13:58:28;;;;;;;17.88;8.88;;;;;;;;;;5078274;28;20063;-69
2022/11/11 14:01:08;;;;;;;15.00;9.15;;;;;;;;;;5041409;28;20061;-69
2022/11/11 14:03:34;;;;;;;12.15;8.80;;;;;;;;;;5042629;28;20057;-69
2022/11/11 14:06:13;;;;;;;12.93;8.63;;;;;;;;;;5047806;28;20528;-70
2022/11/11 14:08:42;;;;;;;12.52;8.32;;;;;;;;;;5052559;28;20045;-70
2022/11/11 14:11:25;;;;;;;12.75;8.88;;;;;;;;;;5062316;28;20053;-72
2022/11/11 14:13:55;;;;;;;14.00;9.52;;;;;;;;;;5083716;28;20419;-71
2022/11/11 14:16:34;;;;;;;12.45;8.32;;;;;;;;;;5069934;28;20060;-71
2022/11/11 14:19:19;;;;;;;11.98;7.85;;;;;;;;;;5067935;28;20122;-72
2022/11/11 14:21:55;;;;;;;15.75;8.98;;;;;;;;;;5061055;28;20049;-71
2022/11/11 14:24:24;;;;;;;12.88;8.40;;;;;;;;;;5044402;28;20088;-71
2022/11/11 14:27:17;;;;;;;12.05;8.52;;;;;;;;;;5066395;28;20148;-70
2022/11/11 14:29:49;;;;;;;15.02;9.00;;;;;;;;;;5067398;28;20485;-70
2022/11/11 14:32:16;;;;;;;12.73;8.38;;;;;;;;;;5072905;28;20200;-71
2022/11/11 14:34:42;;;;;;;12.95;7.97;;;;;;;;;;5085087;28;20456;-71
2022/11/11 14:37:16;;;;;;;12.73;8.63;;;;;;;;;;5071436;28;20517;-71
2022/11/11 14:40:09;;;;;;;10.68;7.70;;;;;;;;;;5058030;28;20057;-70
2022/11/11 14:42:40;;;;;;;10.88;7.03;;;;;;;;;;5058971;28;20067;-71
2022/11/11 14:45:28;;;;;;;13.30;8.20;;;;;;;;;;5065954;28;20049;-71
2022/11/11 14:47:55;;;;;;;13.52;7.78;;;;;;;;;;5056180;28;20510;-70
2022/11/11 14:50:30;;;;;;;13.55;7.50;;;;;;;;;;5062470;28;20103;-71
2022/11/11 14:52:58;;;;;;;14.60;7.30;;;;;;;;;;5055816;28;20093;-71
2022/11/11 14:55:26;;;;;;;9.48;6.50;;;;;;;;;;5052412;28;20057;-70
2022/11/11 14:58:11;;;;;;;13.70;6.90;;;;;;;;;;5061059;28;20495;-71
2022/11/11 15:00:43;;;;;;;11.15;6.80;;;;;;;;;;5062843;28;20063;-70
2022/11/11 15:03:12;;;;;;;10.68;6.70;;;;;;;;;;5061720;28;20084;-71
2022/11/11 15:05:57;;;;;;;13.50;6.82;;;;;;;;;;5063277;28;20537;-71
2022/11/11 15:08:37;;;;;;;8.35;6.20;;;;;;;;;;5073520;28;20056;-69
2022/11/11 15:11:04;;;;;;;8.10;6.07;;;;;;;;;;5047881;28;20054;-69
2022/11/11 15:13:36;;;;;;;9.88;6.20;;;;;;;;;;5079019;28;20057;-70
2022/11/11 15:16:21;;;;;;;9.27;6.00;;;;;;;;;;5072002;28;20056;-71
2022/11/11 15:18:58;;;;;;;11.38;6.40;;;;;;;;;;5073717;28;20061;-70
2022/11/11 15:21:32;;;;;;;9.07;5.70;;;;;;;;;;5063130;28;20056;-70
2022/11/11 15:24:19;;;;;;;10.35;6.50;;;;;;;;;;5068208;28;20049;-70
2022/11/11 15:26:45;;;;;;;10.60;6.40;;;;;;;;;;5058702;28;20055;-69
2022/11/11 15:29:12;;;;;;;12.38;5.65;;;;;;;;;;5068810;28;20102;-70
2022/11/11 15:31:42;;;;;;;15.20;6.55;;;;;;;;;;5082411;28;20060;-71
2022/11/11 15:34:16;;;;;;;9.70;6.13;;;;;;;;;;5050853;28;20055;-71
2022/11/11 15:36:51;;;;;;;9.75;6.15;;;;;;;;;;5068927;28;20502;-71
2022/11/11 15:39:20;;;;;;;7.15;5.45;;;;;;;;;;5063412;28;20075;-71
2022/11/11 15:41:48;;;;;;;17.77;6.10;;;;;;;;;;5062214;28;20052;-70
2022/11/11 15:44:18;;;;;;;9.35;6.07;;;;;;;;;;5062191;28;20424;-71
2022/11/11 15:46:45;;;;;;;11.48;6.10;;;;;;;;;;5061625;28;20049;-70
2022/11/11 15:49:34;;;;;;;7.88;5.90;;;;;;;;;;5061947;28;20049;-70
2022/11/11 15:52:00;;;;;;;11.93;6.57;;;;;;;;;;5061550;28;20076;-71
2022/11/11 15:54:27;;;;;;;12.35;6.60;;;;;;;;;;5062942;28;20667;-71
2022/11/11 15:56:54;;;;;;;9.10;5.63;;;;;;;;;;5062306;28;20049;-70
2022/11/11 15:59:29;;;;;;;11.15;6.75;;;;;;;;;;5059559;28;20060;-70
2022/11/11 16:01:55;;;;;;;10.05;6.25;;;;;;;;;;5056425;28;20053;-70
2022/11/11 16:04:23;;;;;;;10.85;6.25;;;;;;;;;;5057619;28;20052;-70